createdAt,value
2022-10-12T00:05:23.119Z,93.37
2022-10-12T00:15:25.495Z,92.89
2022-10-12T00:25:29.273Z,93.00
2022-10-12T00:35:31.997Z,93.39
2022-10-12T00:45:35.754Z,92.71
2022-10-12T00:55:41.289Z,93.34
2022-10-12T01:05:45.166Z,93.59
2022-10-12T01:15:51.237Z,93.88
2022-10-12T01:26:03.887Z,94.15
2022-10-12T01:36:10.717Z,95.04
2022-10-12T01:46:31.528Z,94.88
2022-10-12T01:56:41.306Z,97.02
2022-10-12T02:06:46.059Z,96.79
2022-10-12T02:16:52.091Z,95.86
2022-10-12T02:26:54.968Z,96.31
2022-10-12T02:37:03.908Z,97.53
2022-10-12T02:47:07.781Z,97.70
2022-10-12T02:57:11.601Z,96.57
2022-10-12T03:07:13.994Z,97.64
2022-10-12T03:17:17.868Z,97.47
2022-10-12T03:27:20.279Z,97.19
2022-10-12T03:37:24.038Z,96.56
2022-10-12T03:47:26.433Z,97.01
2022-10-12T03:57:30.276Z,98.55
2022-10-12T04:07:32.900Z,99.16
2022-10-12T04:17:37.205Z,98.89
2022-10-12T04:27:40.235Z,97.87
2022-10-12T04:37:44.194Z,98.72
2022-10-12T04:47:46.596Z,98.77
2022-10-12T04:57:50.625Z,100.00
2022-10-12T05:07:53.020Z,99.76
2022-10-12T05:17:56.762Z,99.29
2022-10-12T05:28:00.915Z,98.46
2022-10-12T05:38:04.707Z,98.74
2022-10-12T05:48:07.248Z,98.19
2022-10-12T05:58:10.978Z,98.83
2022-10-12T06:08:13.408Z,99.55
2022-10-12T06:18:18.116Z,98.75
2022-10-12T06:28:21.414Z,98.50
2022-10-12T06:38:25.345Z,100.00
2022-10-12T06:48:27.720Z,99.34
2022-10-12T06:58:31.464Z,100.00
2022-10-12T07:08:34.068Z,100.00
2022-10-12T07:18:39.093Z,98.61
2022-10-12T07:28:41.623Z,97.09
2022-10-12T07:38:45.643Z,95.55
2022-10-12T07:48:50.491Z,94.29
2022-10-12T07:58:55.073Z,92.69
2022-10-12T08:08:58.518Z,92.04
2022-10-12T08:19:02.270Z,91.80
2022-10-12T08:29:05.455Z,90.70
2022-10-12T08:39:09.245Z,91.41
2022-10-12T08:49:14.099Z,90.63
2022-10-12T08:59:19.372Z,91.45
2022-10-12T09:09:32.527Z,90.20
2022-10-12T09:19:38.339Z,87.38
2022-10-12T09:29:40.960Z,87.16
2022-10-12T09:39:44.794Z,87.65
2022-10-12T09:49:48.117Z,88.41
2022-10-12T09:59:52.360Z,88.65
2022-10-12T10:10:16.477Z,86.90
2022-10-12T10:20:26.090Z,84.34
2022-10-12T10:30:33.816Z,83.63
2022-10-12T10:40:41.712Z,84.50
2022-10-12T10:50:45.792Z,82.11
2022-10-12T11:00:50.869Z,83.23
2022-10-12T11:10:54.550Z,82.92
2022-10-12T11:20:59.799Z,81.90
2022-10-12T11:31:02.502Z,81.55
2022-10-12T11:41:33.969Z,81.17
2022-10-12T11:51:31.457Z,79.50
2022-10-12T12:01:44.585Z,81.17
2022-10-12T12:11:47.016Z,80.53
2022-10-12T12:22:04.310Z,80.04
2022-10-12T12:32:08.103Z,79.27
2022-10-12T12:42:10.617Z,78.29
2022-10-12T12:52:17.561Z,75.82
2022-10-12T13:02:39.675Z,75.74
2022-10-12T13:12:54.539Z,76.00
2022-10-12T13:22:58.002Z,76.12
2022-10-12T13:33:04.125Z,74.36
2022-10-12T13:43:19.848Z,73.04
2022-10-12T13:53:24.140Z,72.32
2022-10-12T14:03:27.445Z,72.90
2022-10-12T14:13:35.025Z,72.30
2022-10-12T14:23:41.959Z,72.44
2022-10-12T14:33:45.734Z,73.60
2022-10-12T14:44:06.161Z,72.83
2022-10-12T14:54:12.436Z,74.13
2022-10-12T15:04:15.175Z,74.15
2022-10-12T15:14:18.937Z,75.06
2022-10-12T15:24:21.344Z,75.95
2022-10-12T15:34:25.121Z,77.81
2022-10-12T15:44:27.917Z,76.97
2022-10-12T15:54:31.730Z,78.03
2022-10-12T16:04:34.308Z,79.47
2022-10-12T16:14:38.059Z,79.55
2022-10-12T16:24:40.451Z,80.03
2022-10-12T16:34:44.208Z,80.20
2022-10-12T16:44:46.693Z,80.15
2022-10-12T16:54:50.449Z,81.47
2022-10-12T17:04:52.867Z,81.36
2022-10-12T17:14:56.621Z,81.41
2022-10-12T17:24:59.080Z,81.17
2022-10-12T17:35:03.157Z,81.86
2022-10-12T17:45:05.981Z,82.34
2022-10-12T17:55:29.647Z,82.72
2022-10-12T18:05:34.578Z,83.04
2022-10-12T18:15:42.095Z,84.40
2022-10-12T18:25:46.845Z,84.22
2022-10-12T18:35:50.704Z,84.02
2022-10-12T18:45:53.114Z,84.12
2022-10-12T18:55:56.854Z,84.93
2022-10-12T19:06:04.232Z,83.84
2022-10-12T19:16:09.960Z,85.04
2022-10-12T19:26:13.668Z,85.58
2022-10-12T19:36:18.649Z,85.75
2022-10-12T19:46:21.126Z,87.01
2022-10-12T19:56:25.350Z,86.53
2022-10-12T20:06:28.733Z,86.85
2022-10-12T20:16:35.188Z,86.53
2022-10-12T20:26:38.198Z,86.80
2022-10-12T20:36:41.976Z,88.32
2022-10-12T20:46:45.641Z,87.81
2022-10-12T20:56:51.867Z,87.49
2022-10-12T21:06:54.278Z,89.19
2022-10-12T21:16:58.162Z,89.29
2022-10-12T21:27:00.528Z,89.79
2022-10-12T21:37:05.440Z,91.19
2022-10-12T21:47:07.951Z,91.27
2022-10-12T21:57:11.726Z,90.70
2022-10-12T22:07:14.255Z,89.71
2022-10-12T22:17:18.007Z,89.30
2022-10-12T22:27:20.470Z,90.76
2022-10-12T22:37:24.263Z,91.60
2022-10-12T22:47:26.627Z,89.32
2022-10-12T22:57:31.975Z,89.13
2022-10-12T23:07:34.463Z,89.58
2022-10-12T23:17:38.216Z,88.49
2022-10-12T23:27:40.636Z,88.69
2022-10-12T23:37:44.745Z,90.09
2022-10-12T23:47:47.186Z,90.03
2022-10-12T23:57:51.041Z,88.11
